Terminal Aerodrome Forecast
Issued by NWS

Home | Current Version | Previous Version | Text Only | Print | Product List | Glossary On
Versions: 1 2 3 4 5 6 7 8 9 10 11 12 13 14 15 16 17 18 19 20 21 22 23 24 25 26 27 28
196
FTUS44 KBMX 232342
TAFTOI
TAF
KTOI 232342Z 2400/2424 VRB03KT P6SM VCSH SCT045 OVC090
      TEMPO 2401/2404 4SM TSRA BR BKN025CB
     FM240600 21003KT P6SM OVC010
     FM241100 22004KT 2SM -SHRA BR OVC007
     FM241600 25012G20KT P6SM OVC025
     FM241800 26012G20KT P6SM OVC050=

USA.gov is the U.S. government's official web portal to all federal, state and local government web resources and services.